createdAt,value
2023-09-21T00:02:56.741Z,3.25
2023-09-21T00:05:48.931Z,3.75
2023-09-21T00:08:38.173Z,2.25
2023-09-21T00:11:24.732Z,4.00
2023-09-21T00:14:13.196Z,4.75
2023-09-21T00:16:59.285Z,4.50
2023-09-21T00:19:59.421Z,4.25
2023-09-21T00:22:52.690Z,2.75
2023-09-21T00:25:40.051Z,4.00
2023-09-21T00:28:27.042Z,3.75
2023-09-21T00:31:13.561Z,3.00
2023-09-21T00:34:00.529Z,3.00
2023-09-21T00:37:00.147Z,4.25
2023-09-21T00:39:50.805Z,3.50
2023-09-21T00:42:37.724Z,5.25
2023-09-21T00:45:24.356Z,3.25
2023-09-21T00:48:14.192Z,3.00
2023-09-21T00:51:01.391Z,2.75
2023-09-21T00:53:58.438Z,4.25
2023-09-21T00:56:50.219Z,4.75
2023-09-21T00:59:40.817Z,4.00
2023-09-21T01:02:27.764Z,3.75
2023-09-21T01:05:19.667Z,3.50
2023-09-21T01:08:12.775Z,4.25
2023-09-21T01:11:11.603Z,3.25
2023-09-21T01:13:58.134Z,4.25
2023-09-21T01:16:44.800Z,2.50
2023-09-21T01:19:31.176Z,5.00
2023-09-21T01:22:19.568Z,4.00
2023-09-21T01:25:10.277Z,3.50
2023-09-21T01:28:18.503Z,3.75
2023-09-21T01:31:07.181Z,4.00
2023-09-21T01:33:53.458Z,0.50
2023-09-21T01:36:40.045Z,4.75
2023-09-21T01:39:30.986Z,5.00
2023-09-21T01:42:27.060Z,2.50
2023-09-21T01:45:16.517Z,3.50
2023-09-21T01:48:03.116Z,4.50
2023-09-21T01:50:52.254Z,3.00
2023-09-21T01:53:38.774Z,3.50
2023-09-21T01:56:31.179Z,1.25
2023-09-21T01:59:24.198Z,2.50
2023-09-21T02:02:11.776Z,3.75
2023-09-21T02:04:58.299Z,3.00
2023-09-21T02:07:45.272Z,3.00
2023-09-21T02:10:39.197Z,3.00
2023-09-21T02:13:38.158Z,3.75
2023-09-21T02:16:27.390Z,3.00
2023-09-21T02:19:16.574Z,3.00
2023-09-21T02:22:02.467Z,3.50
2023-09-21T02:24:48.722Z,2.00
2023-09-21T02:27:42.071Z,3.25
2023-09-21T02:30:35.358Z,4.00
2023-09-21T02:33:22.153Z,5.00
2023-09-21T02:36:19.631Z,1.25
2023-09-21T02:39:12.262Z,3.00
2023-09-21T02:42:01.450Z,5.00
2023-09-21T02:44:51.954Z,2.75
2023-09-21T02:47:44.398Z,1.75
2023-09-21T02:50:36.028Z,3.00
2023-09-21T02:53:22.615Z,2.50
2023-09-21T02:56:11.001Z,3.00
2023-09-21T02:59:04.023Z,2.50
2023-09-21T03:01:55.953Z,2.75
2023-09-21T03:04:54.242Z,2.25
2023-09-21T03:07:44.728Z,4.00
2023-09-21T03:10:31.385Z,3.00
2023-09-21T03:13:21.403Z,3.00
2023-09-21T03:16:18.378Z,1.75
2023-09-21T03:19:11.482Z,2.00
2023-09-21T03:22:00.512Z,2.00
2023-09-21T03:24:49.257Z,3.00
2023-09-21T03:27:36.521Z,0.50
2023-09-21T03:30:29.565Z,3.25
2023-09-21T03:33:23.271Z,3.00
2023-09-21T03:36:15.412Z,3.25
2023-09-21T03:39:02.369Z,3.00
2023-09-21T03:41:50.168Z,3.75
2023-09-21T03:44:39.083Z,1.50
2023-09-21T03:47:31.833Z,2.50
2023-09-21T03:50:28.783Z,2.50
2023-09-21T03:53:21.430Z,2.00
2023-09-21T03:56:07.924Z,2.75
2023-09-21T03:58:54.180Z,2.00
2023-09-21T04:01:48.151Z,4.50
2023-09-21T04:04:46.044Z,2.50
2023-09-21T04:07:36.305Z,2.00
2023-09-21T04:10:28.609Z,2.75
2023-09-21T04:13:16.586Z,3.50
2023-09-21T04:16:10.005Z,3.75
2023-09-21T04:19:06.915Z,3.25
2023-09-21T04:21:57.662Z,2.75
2023-09-21T04:24:46.682Z,2.75
2023-09-21T04:27:42.460Z,3.00
2023-09-21T04:30:29.458Z,2.75
2023-09-21T04:33:20.013Z,2.25
2023-09-21T04:36:13.141Z,2.75
2023-09-21T04:39:03.277Z,2.00
2023-09-21T04:41:54.422Z,2.50
2023-09-21T04:44:40.461Z,3.00
2023-09-21T04:47:28.800Z,4.00
2023-09-21T04:50:19.577Z,4.25
2023-09-21T04:53:05.909Z,4.00
2023-09-21T04:55:54.835Z,2.50
2023-09-21T04:58:41.811Z,3.75
2023-09-21T05:01:28.867Z,1.00
2023-09-21T05:04:17.810Z,3.00
2023-09-21T05:07:10.332Z,3.00
2023-09-21T05:09:59.646Z,2.50
2023-09-21T05:12:53.701Z,3.00
2023-09-21T05:15:41.878Z,2.75
2023-09-21T05:18:28.656Z,3.25
2023-09-21T05:21:21.531Z,2.25
2023-09-21T05:24:11.877Z,2.00
2023-09-21T05:27:02.515Z,2.00
2023-09-21T05:29:55.265Z,2.50
2023-09-21T05:32:42.065Z,2.50
2023-09-21T05:35:31.024Z,3.00
2023-09-21T05:38:24.382Z,2.25
2023-09-21T05:41:14.303Z,2.00
2023-09-21T05:44:02.626Z,3.25
2023-09-21T05:46:53.392Z,3.00
2023-09-21T05:49:41.040Z,2.00
2023-09-21T05:52:36.879Z,4.20
2023-09-21T05:55:27.811Z,2.00
2023-09-21T05:58:21.447Z,2.60
2023-09-21T06:01:17.227Z,1.60
2023-09-21T06:04:04.027Z,1.80
2023-09-21T06:06:57.583Z,2.20
2023-09-21T06:09:49.422Z,0.20
2023-09-21T06:12:41.987Z,0.80
2023-09-21T06:15:30.364Z,3.80
2023-09-21T06:18:21.347Z,2.00
2023-09-21T06:21:08.039Z,3.00
2023-09-21T06:23:56.612Z,2.00
2023-09-21T06:26:50.189Z,2.00
2023-09-21T06:29:40.390Z,2.00
2023-09-21T06:32:27.204Z,1.40
2023-09-21T06:35:15.954Z,1.20
2023-09-21T06:38:02.133Z,2.00
2023-09-21T06:40:52.918Z,3.00
2023-09-21T06:43:44.805Z,3.00
2023-09-21T06:46:44.648Z,2.80
2023-09-21T06:49:31.205Z,1.00
2023-09-21T06:52:18.905Z,2.40
2023-09-21T06:55:06.706Z,2.60
2023-09-21T06:57:53.708Z,2.00
2023-09-21T07:00:44.451Z,2.60
2023-09-21T07:03:36.201Z,2.00
2023-09-21T07:06:22.782Z,2.00
2023-09-21T07:09:10.605Z,2.00
2023-09-21T07:11:56.909Z,1.60
2023-09-21T07:14:43.694Z,1.80
2023-09-21T07:17:32.098Z,2.20
2023-09-21T07:20:25.011Z,2.00
2023-09-21T07:23:13.423Z,1.00
2023-09-21T07:26:00.016Z,1.00
2023-09-21T07:28:47.076Z,3.00
2023-09-21T07:31:34.755Z,2.00
2023-09-21T07:34:25.140Z,2.00
2023-09-21T07:37:17.570Z,2.00
2023-09-21T07:40:07.954Z,2.80
2023-09-21T07:42:54.990Z,2.60
2023-09-21T07:45:41.883Z,3.00
2023-09-21T07:48:33.919Z,3.00
2023-09-21T07:51:27.482Z,2.00
2023-09-21T07:54:15.932Z,1.60
2023-09-21T07:57:06.296Z,3.20
2023-09-21T07:59:52.969Z,1.00
2023-09-21T08:02:39.597Z,2.00
2023-09-21T08:05:28.482Z,2.00
2023-09-21T08:08:23.091Z,2.60
2023-09-21T08:11:13.545Z,2.20
2023-09-21T08:14:01.789Z,1.60
2023-09-21T08:16:48.554Z,4.20
2023-09-21T08:19:40.859Z,1.00
2023-09-21T08:22:29.712Z,2.00
2023-09-21T08:25:27.087Z,2.20
2023-09-21T08:28:15.741Z,2.40
2023-09-21T08:31:02.498Z,3.00
2023-09-21T08:33:51.338Z,1.60
2023-09-21T08:36:38.915Z,2.00
2023-09-21T08:39:27.210Z,2.20
2023-09-21T08:42:19.677Z,1.20
2023-09-21T08:45:11.375Z,2.40
2023-09-21T08:47:59.814Z,3.00
2023-09-21T08:50:46.305Z,2.80
2023-09-21T08:53:35.044Z,2.00
2023-09-21T08:56:24.787Z,0.60
2023-09-21T08:59:21.821Z,2.20
2023-09-21T09:02:17.064Z,2.80
2023-09-21T09:05:10.732Z,2.40
2023-09-21T09:07:57.574Z,3.40
2023-09-21T09:10:44.895Z,1.80
2023-09-21T09:13:39.528Z,3.00
2023-09-21T09:16:32.967Z,2.00
2023-09-21T09:19:22.349Z,2.20
2023-09-21T09:22:12.586Z,2.00
2023-09-21T09:25:06.456Z,3.00
2023-09-21T09:27:52.651Z,3.00
2023-09-21T09:30:50.071Z,1.60
2023-09-21T09:33:42.814Z,3.00
2023-09-21T09:36:34.707Z,1.80
2023-09-21T09:39:21.190Z,1.00
2023-09-21T09:42:08.563Z,2.80
2023-09-21T09:44:56.995Z,4.00
2023-09-21T09:47:56.999Z,3.80
2023-09-21T09:50:28.907Z,3.40
2023-09-21T09:53:04.622Z,2.60
2023-09-21T09:55:34.561Z,2.00
2023-09-21T09:58:03.115Z,4.00
2023-09-21T10:00:31.901Z,2.60
2023-09-21T10:03:00.271Z,1.40
2023-09-21T10:05:29.043Z,3.00
2023-09-21T10:08:00.887Z,2.00
2023-09-21T10:10:37.552Z,2.60
2023-09-21T10:13:07.328Z,1.00
2023-09-21T10:15:35.275Z,3.40
2023-09-21T10:18:03.814Z,3.20
2023-09-21T10:20:34.187Z,2.60
2023-09-21T10:23:03.544Z,2.60
2023-09-21T10:25:50.601Z,2.00
2023-09-21T10:28:30.443Z,2.40
2023-09-21T10:31:24.745Z,3.60
2023-09-21T10:33:52.713Z,2.20
2023-09-21T10:36:23.144Z,3.00
2023-09-21T10:39:12.214Z,2.60
2023-09-21T10:41:47.448Z,3.20
2023-09-21T10:44:53.896Z,2.80
2023-09-21T10:47:43.501Z,2.00
2023-09-21T10:50:14.533Z,4.00
2023-09-21T10:52:44.522Z,3.00
2023-09-21T10:55:15.028Z,2.60
2023-09-21T10:57:44.268Z,2.20
2023-09-21T11:00:20.339Z,2.00
2023-09-21T11:02:51.279Z,3.20
2023-09-21T11:05:21.161Z,3.00
2023-09-21T11:07:52.963Z,2.00
2023-09-21T11:10:21.863Z,3.80
2023-09-21T11:12:50.231Z,3.80
2023-09-21T11:15:18.970Z,2.80
2023-09-21T11:17:48.663Z,3.00
2023-09-21T11:20:21.134Z,2.00
2023-09-21T11:22:52.428Z,3.00
2023-09-21T11:25:24.527Z,2.60
2023-09-21T11:27:54.239Z,3.00
2023-09-21T11:30:24.537Z,2.80
2023-09-21T11:32:53.975Z,2.40
2023-09-21T11:35:25.178Z,2.80
2023-09-21T11:37:53.199Z,2.20
2023-09-21T11:40:24.168Z,2.60
2023-09-21T11:42:58.268Z,4.60
2023-09-21T11:45:26.730Z,3.00
2023-09-21T11:47:59.313Z,4.40
2023-09-21T11:50:31.629Z,3.00
2023-09-21T11:53:00.580Z,3.00
2023-09-21T11:55:29.586Z,4.00
2023-09-21T11:58:15.418Z,3.00
2023-09-21T12:01:14.769Z,4.00
2023-09-21T12:03:43.564Z,3.20
2023-09-21T12:06:13.825Z,3.00
2023-09-21T12:08:43.353Z,1.80
2023-09-21T12:11:13.444Z,4.00
2023-09-21T12:13:46.739Z,3.20
2023-09-21T12:16:15.330Z,6.20
2023-09-21T12:18:45.224Z,3.80
2023-09-21T12:21:20.230Z,1.40
2023-09-21T12:23:48.326Z,4.20
2023-09-21T12:26:16.368Z,2.80
2023-09-21T12:28:44.897Z,1.00
2023-09-21T12:31:15.681Z,2.40
2023-09-21T12:33:44.430Z,2.20
2023-09-21T12:36:26.799Z,3.40
2023-09-21T12:39:02.481Z,3.20
2023-09-21T12:41:32.361Z,2.80
2023-09-21T12:44:00.091Z,4.40
2023-09-21T12:46:29.440Z,3.60
2023-09-21T12:48:57.669Z,3.60
2023-09-21T12:51:25.713Z,3.80
2023-09-21T12:53:54.665Z,4.20
2023-09-21T12:56:22.560Z,4.20
2023-09-21T12:58:51.318Z,3.40
2023-09-21T13:01:18.993Z,3.20
2023-09-21T13:03:47.587Z,3.60
2023-09-21T13:06:15.779Z,2.80
2023-09-21T13:08:44.971Z,3.00
2023-09-21T13:11:12.977Z,3.80
2023-09-21T13:13:41.046Z,4.80
2023-09-21T13:16:09.857Z,2.20
2023-09-21T13:18:37.946Z,4.60
2023-09-21T13:21:06.306Z,3.20
2023-09-21T13:23:34.450Z,3.80
2023-09-21T13:26:02.854Z,3.00
2023-09-21T13:28:30.827Z,3.00
2023-09-21T13:30:58.911Z,3.60
2023-09-21T13:33:27.382Z,3.20
2023-09-21T13:35:55.127Z,2.20
2023-09-21T13:38:24.084Z,4.00
2023-09-21T13:40:51.687Z,3.60
2023-09-21T13:43:21.198Z,4.00
2023-09-21T13:45:48.785Z,3.80
2023-09-21T13:48:16.890Z,3.20
2023-09-21T13:50:44.802Z,3.40
2023-09-21T13:53:13.321Z,4.00
2023-09-21T13:55:41.041Z,4.00
2023-09-21T13:58:08.853Z,2.20
2023-09-21T14:00:36.659Z,2.20
2023-09-21T14:03:05.450Z,3.00
2023-09-21T14:05:34.925Z,3.00
2023-09-21T14:08:04.442Z,2.20
2023-09-21T14:10:33.165Z,3.00
2023-09-21T14:13:01.076Z,2.40
2023-09-21T14:15:28.894Z,2.60
2023-09-21T14:17:57.143Z,3.20
2023-09-21T14:20:24.739Z,3.00
2023-09-21T14:22:52.693Z,3.80
2023-09-21T14:25:20.927Z,3.20
2023-09-21T14:27:48.679Z,5.20
2023-09-21T14:30:17.373Z,2.80
2023-09-21T14:32:48.394Z,2.20
2023-09-21T14:35:17.146Z,2.00
2023-09-21T14:37:44.817Z,3.00
2023-09-21T14:40:13.752Z,3.00
2023-09-21T14:42:41.497Z,3.00
2023-09-21T14:45:11.389Z,2.40
2023-09-21T14:47:39.569Z,2.40
2023-09-21T14:50:09.572Z,3.20
2023-09-21T14:52:38.176Z,2.00
2023-09-21T14:55:06.262Z,3.20
2023-09-21T14:57:34.005Z,2.40
2023-09-21T15:00:02.454Z,4.00
2023-09-21T15:02:30.635Z,2.60
2023-09-21T15:04:58.394Z,2.80
2023-09-21T15:07:27.903Z,3.00
2023-09-21T15:09:55.574Z,3.00
2023-09-21T15:12:23.211Z,3.00
2023-09-21T15:14:51.241Z,3.20
2023-09-21T15:17:18.914Z,1.40
2023-09-21T15:19:47.801Z,3.20
2023-09-21T15:22:18.512Z,3.00
2023-09-21T15:24:46.665Z,2.80
2023-09-21T15:27:18.400Z,3.00
2023-09-21T15:29:47.332Z,3.00
2023-09-21T15:32:16.469Z,4.00
2023-09-21T15:34:45.784Z,3.00
2023-09-21T15:37:13.428Z,4.00
2023-09-21T15:39:42.308Z,2.60
2023-09-21T15:42:09.848Z,1.00
2023-09-21T15:44:37.784Z,2.00
2023-09-21T15:49:33.901Z,5.00
2023-09-21T15:52:02.070Z,3.00
2023-09-21T15:54:31.263Z,3.00
2023-09-21T15:56:58.725Z,3.60
2023-09-21T15:59:27.081Z,3.20
2023-09-21T16:01:54.809Z,2.80
2023-09-21T16:04:24.061Z,2.20
2023-09-21T16:06:51.613Z,3.20
2023-09-21T16:09:19.205Z,3.60
2023-09-21T16:11:48.360Z,3.00
2023-09-21T16:14:16.088Z,1.60
2023-09-21T16:16:43.665Z,4.00
2023-09-21T16:19:11.685Z,4.00
2023-09-21T16:21:41.900Z,3.00
2023-09-21T16:24:09.860Z,2.80
2023-09-21T16:26:37.562Z,3.40
2023-09-21T16:29:05.203Z,3.40
2023-09-21T16:31:32.719Z,6.80
2023-09-21T16:34:00.405Z,4.60
2023-09-21T16:36:28.252Z,3.20
2023-09-21T16:38:56.107Z,4.60
2023-09-21T16:41:23.481Z,3.40
2023-09-21T16:43:51.181Z,2.40
2023-09-21T16:46:37.534Z,2.40
2023-09-21T16:49:06.853Z,3.50
2023-09-21T16:51:34.281Z,2.80
2023-09-21T16:54:01.911Z,3.80
2023-09-21T16:56:32.636Z,4.00
2023-09-21T16:59:04.587Z,5.00
2023-09-21T17:01:32.114Z,2.00
2023-09-21T17:03:59.952Z,6.00
2023-09-21T17:06:27.848Z,4.00
2023-09-21T17:08:55.533Z,4.00
2023-09-21T17:11:22.974Z,5.50
2023-09-21T17:13:52.609Z,4.75
2023-09-21T17:16:20.550Z,4.67
2023-09-21T17:18:48.274Z,3.75
2023-09-21T17:21:16.515Z,4.25
2023-09-21T17:23:46.807Z,5.00
2023-09-21T17:26:14.319Z,4.00
2023-09-21T17:28:41.799Z,4.00
2023-09-21T17:31:12.761Z,4.00
2023-09-21T17:33:40.654Z,4.75
2023-09-21T17:36:09.835Z,4.00
2023-09-21T17:38:39.919Z,4.00
2023-09-21T17:41:07.749Z,4.00
2023-09-21T17:43:35.367Z,4.50
2023-09-21T17:46:03.207Z,5.25
2023-09-21T17:48:32.383Z,3.25
2023-09-21T17:51:07.086Z,4.00
2023-09-21T17:53:36.351Z,4.25
2023-09-21T17:56:04.087Z,3.50
2023-09-21T17:58:34.464Z,4.00
2023-09-21T18:01:02.951Z,4.00
2023-09-21T18:03:31.033Z,4.50
2023-09-21T18:05:58.946Z,4.75
2023-09-21T18:08:26.622Z,5.00
2023-09-21T18:10:54.539Z,4.00
2023-09-21T18:13:22.194Z,5.50
2023-09-21T18:15:50.892Z,3.75
2023-09-21T18:18:18.556Z,5.25
2023-09-21T18:20:46.397Z,4.50
2023-09-21T18:23:13.999Z,2.00
2023-09-21T18:25:43.428Z,4.75
2023-09-21T18:28:11.276Z,3.75
2023-09-21T18:30:39.979Z,4.25
2023-09-21T18:33:07.708Z,4.25
2023-09-21T18:35:35.406Z,5.25
2023-09-21T18:38:03.528Z,5.00
2023-09-21T18:40:31.302Z,6.25
2023-09-21T18:43:00.140Z,4.75
2023-09-21T18:45:28.043Z,5.25
2023-09-21T18:47:57.235Z,5.00
2023-09-21T18:50:27.420Z,4.25
2023-09-21T18:52:55.040Z,5.00
2023-09-21T18:55:23.012Z,5.00
2023-09-21T18:57:51.107Z,4.00
2023-09-21T19:00:20.957Z,5.75
2023-09-21T19:02:50.794Z,5.00
2023-09-21T19:05:20.772Z,5.00
2023-09-21T19:07:48.714Z,4.50
2023-09-21T19:10:16.789Z,5.50
2023-09-21T19:12:44.606Z,5.00
2023-09-21T19:15:12.347Z,4.75
2023-09-21T19:17:40.632Z,5.00
2023-09-21T19:20:09.736Z,3.00
2023-09-21T19:22:38.957Z,6.00
2023-09-21T19:25:07.806Z,4.75
2023-09-21T19:27:36.674Z,5.50
2023-09-21T19:30:04.578Z,4.75
2023-09-21T19:32:33.371Z,5.00
2023-09-21T19:35:01.134Z,4.50
2023-09-21T19:37:29.158Z,4.00
2023-09-21T19:39:57.005Z,3.00
2023-09-21T19:42:25.091Z,5.75
2023-09-21T19:44:53.086Z,3.50
2023-09-21T19:47:21.211Z,5.00
2023-09-21T19:49:50.728Z,5.25
2023-09-21T19:52:18.665Z,4.75
2023-09-21T19:54:46.763Z,4.50
2023-09-21T19:57:14.548Z,4.00
2023-09-21T19:59:42.688Z,5.00
2023-09-21T20:02:10.690Z,4.25
2023-09-21T20:04:38.449Z,3.00
2023-09-21T20:07:06.682Z,5.25
2023-09-21T20:09:34.617Z,3.25
2023-09-21T20:12:02.524Z,3.75
2023-09-21T20:14:30.885Z,4.75
2023-09-21T20:16:58.585Z,4.00
2023-09-21T20:19:26.330Z,5.00
2023-09-21T20:21:55.550Z,5.00
2023-09-21T20:24:23.298Z,5.75
2023-09-21T20:26:51.443Z,5.00
2023-09-21T20:29:19.112Z,6.00
2023-09-21T20:31:47.019Z,6.00
2023-09-21T20:34:15.081Z,6.00
2023-09-21T20:36:43.038Z,5.25
2023-09-21T20:39:10.887Z,3.75
2023-09-21T20:41:38.644Z,4.25
2023-09-21T20:44:06.456Z,5.00
2023-09-21T20:46:34.819Z,4.75
2023-09-21T20:49:02.448Z,6.00
2023-09-21T20:51:30.210Z,5.00
2023-09-21T20:53:58.096Z,5.75
2023-09-21T20:56:25.900Z,7.00
2023-09-21T20:58:53.526Z,5.50
2023-09-21T21:01:21.279Z,3.00
2023-09-21T21:03:49.740Z,5.25
2023-09-21T21:06:18.811Z,6.75
2023-09-21T21:08:47.269Z,5.75
2023-09-21T21:11:14.849Z,5.00
2023-09-21T21:13:43.154Z,5.25
2023-09-21T21:16:11.031Z,5.25
2023-09-21T21:18:39.103Z,5.50
2023-09-21T21:21:06.726Z,9.00
2023-09-21T21:23:35.473Z,5.00
2023-09-21T21:26:03.449Z,6.00
2023-09-21T21:28:31.288Z,6.25
2023-09-21T21:30:59.323Z,7.25
2023-09-21T21:33:27.512Z,6.25
2023-09-21T21:35:56.850Z,6.75
2023-09-21T21:38:24.580Z,6.50
2023-09-21T21:40:52.390Z,6.00
2023-09-21T21:43:20.125Z,5.75
2023-09-21T21:45:47.979Z,6.50
2023-09-21T21:48:15.914Z,2.50
2023-09-21T21:50:43.726Z,5.00
2023-09-21T21:53:11.548Z,6.75
2023-09-21T21:55:40.207Z,6.00
2023-09-21T21:58:08.788Z,5.75
2023-09-21T22:00:40.866Z,5.50
2023-09-21T22:03:08.805Z,5.75
2023-09-21T22:05:38.503Z,6.50
2023-09-21T22:08:09.413Z,5.75
2023-09-21T22:10:37.898Z,6.00
2023-09-21T22:13:07.052Z,6.00
2023-09-21T22:15:38.170Z,5.50
2023-09-21T22:18:08.459Z,6.00
2023-09-21T22:20:36.377Z,6.50
2023-09-21T22:23:04.246Z,7.00
2023-09-21T22:25:35.332Z,5.25
2023-09-21T22:28:09.062Z,5.00
2023-09-21T22:30:37.321Z,7.75
2023-09-21T22:33:05.574Z,2.50
2023-09-21T22:35:33.424Z,8.75
2023-09-21T22:38:14.105Z,4.00
2023-09-21T22:40:47.836Z,7.50
2023-09-21T22:43:15.625Z,6.00
2023-09-21T22:45:43.535Z,6.75
2023-09-21T22:48:12.164Z,6.00
2023-09-21T22:50:39.715Z,9.25
2023-09-21T22:53:07.528Z,9.00
2023-09-21T22:55:37.586Z,5.75
2023-09-21T22:58:05.924Z,7.50
2023-09-21T23:00:34.313Z,6.25
2023-09-21T23:03:04.755Z,6.50
2023-09-21T23:05:32.968Z,5.75
2023-09-21T23:08:00.985Z,7.50
2023-09-21T23:10:28.926Z,7.75
2023-09-21T23:12:57.648Z,3.00
2023-09-21T23:15:25.259Z,7.75
2023-09-21T23:17:53.714Z,5.00
2023-09-21T23:20:22.890Z,8.50
2023-09-21T23:22:51.336Z,5.00
2023-09-21T23:25:19.953Z,6.25
2023-09-21T23:27:47.823Z,5.25
2023-09-21T23:30:18.353Z,4.00
2023-09-21T23:32:47.720Z,6.25
2023-09-21T23:35:15.832Z,6.00
2023-09-21T23:37:45.205Z,5.50
2023-09-21T23:40:13.233Z,8.50
2023-09-21T23:42:44.188Z,10.00
2023-09-21T23:45:14.380Z,6.50
2023-09-21T23:47:43.438Z,4.25
2023-09-21T23:50:14.556Z,7.00
2023-09-21T23:52:46.801Z,6.75
2023-09-21T23:55:17.438Z,6.50
2023-09-21T23:57:47.484Z,10.00
